»·PEaware :: N739WF KSBA-KBUR

N739WF :: KSBA-KBUR

FLIGHT INFORMATION

Flight Status: Arrived
Operator: Privately registered:
United States
More flights under this callsign
Pilot: David G. (28156)
Aircraft: CESSNA 172 SKYHAWK
(C172)
More flights by this aircraft type
Origin: KSBA Santa Barbara Mun
United States
Destination: KBUR Bob Hope-Burbank
United States
More flights between these airports :: More routes between these airports
Route: DIRECT
File this flight plan on PilotEdge
Remarks: Just practice
Altitude:
(Current/Filed)
5,500ft
Speed:
(Current/Filed)
100kts
Departed: 21-Nov-20 12:42 PM
Arrived: 21-Nov-20 01:23 PM
Distance/Time
Traveled:
1430nm/0:41
Distance/Time
To Go:
Arrived

Flight Plot

Page will automatically refresh every two minutes.


Map Options




Map Legend


Flown Route
Filed Route
Departure Airport
Arrival Airport
Navaid (VOR, NDB)
Fix

Horizontal Profiles

Position Reports

Time Latitude Longitude Heading Altitude Ground
Speed
21-Nov-20 12:17 34.432569 -119.835085 71 13ft 0kts
21-Nov-20 12:18 34.432569 -119.835085 71 13ft 0kts
21-Nov-20 12:19 34.432569 -119.835085 71 13ft 0kts
21-Nov-20 12:20 34.432569 -119.835084 71 13ft 0kts
21-Nov-20 12:21 34.432569 -119.835084 71 13ft 0kts
21-Nov-20 12:22 34.432569 -119.835084 71 13ft 0kts
21-Nov-20 12:23 34.432569 -119.835084 71 13ft 0kts
21-Nov-20 12:24 34.432569 -119.835084 71 13ft 0kts
21-Nov-20 12:24 34.432569 -119.835084 71 13ft 0kts
21-Nov-20 12:26 34.432569 -119.835084 71 13ft 0kts
21-Nov-20 12:26 34.432569 -119.835084 71 13ft 0kts
21-Nov-20 12:28 34.432569 -119.835084 71 13ft 0kts
21-Nov-20 12:28 34.432569 -119.835084 71 13ft 0kts
21-Nov-20 12:29 34.432569 -119.835084 71 13ft 0kts
21-Nov-20 12:31 34.432569 -119.835084 71 13ft 0kts
21-Nov-20 12:31 34.432569 -119.835084 71 13ft 0kts
21-Nov-20 12:32 34.432569 -119.835084 71 13ft 0kts
21-Nov-20 12:33 34.432569 -119.835084 71 13ft 0kts
21-Nov-20 12:34 34.432569 -119.835084 71 13ft 0kts
21-Nov-20 12:35 34.432383 -119.834930 229 13ft 4kts
21-Nov-20 12:36 34.431649 -119.836617 252 13ft 4kts
21-Nov-20 12:37 34.431092 -119.838568 249 13ft 6kts
21-Nov-20 12:38 34.430848 -119.839788 247 13ft 0kts
21-Nov-20 12:39 34.430848 -119.839788 247 13ft 0kts
21-Nov-20 12:40 34.430606 -119.840314 158 13ft 0kts
21-Nov-20 12:41 34.412013 -119.835205 166 303ft 102kts
21-Nov-20 12:42 34.381671 -119.827484 170 936ft 110kts
21-Nov-20 12:43 34.350909 -119.824775 184 1522ft 113kts
21-Nov-20 12:44 34.340878 -119.800344 67 2319ft 107kts
21-Nov-20 12:45 34.365389 -119.776958 44 2916ft 116kts
21-Nov-20 12:46 34.387571 -119.746880 47 3430ft 121kts
21-Nov-20 12:47 34.407079 -119.714562 75 3901ft 119kts
21-Nov-20 12:48 34.409308 -119.673960 93 4277ft 120kts
21-Nov-20 12:49 34.408718 -119.633796 96 4743ft 117kts
21-Nov-20 12:50 34.410107 -119.592418 90 5038ft 123kts
21-Nov-20 12:51 34.408439 -119.550403 102 5320ft 122kts
21-Nov-20 12:52 34.404530 -119.508448 102 5454ft 120kts
21-Nov-20 12:53 34.401787 -119.468568 98 5411ft 114kts
21-Nov-20 12:54 34.399196 -119.429297 99 5530ft 120kts
21-Nov-20 12:55 34.395865 -119.388181 96 5662ft 122kts
21-Nov-20 12:56 34.394458 -119.345562 102 5627ft 131kts
21-Nov-20 12:57 34.387483 -119.302352 106 5568ft 129kts
21-Nov-20 12:58 34.380950 -119.259497 103 5536ft 130kts
21-Nov-20 12:59 34.378605 -119.215424 95 5496ft 130kts
21-Nov-20 13:00 34.374621 -119.172106 99 5507ft 127kts
21-Nov-20 13:01 34.370201 -119.128973 89 5452ft 131kts
21-Nov-20 13:02 34.372999 -119.086086 100 5455ft 127kts
21-Nov-20 13:03 34.366744 -119.044062 104 5440ft 128kts
21-Nov-20 13:04 34.360498 -119.002227 102 5462ft 126kts
21-Nov-20 13:05 34.358159 -118.959707 100 5438ft 129kts
21-Nov-20 13:06 34.353086 -118.916828 107 5402ft 128kts
21-Nov-20 13:07 34.347175 -118.875161 111 5497ft 120kts
21-Nov-20 13:08 34.337760 -118.834465 109 5436ft 127kts
21-Nov-20 13:09 34.327854 -118.793641 111 5415ft 128kts
21-Nov-20 13:10 34.319682 -118.752730 108 5511ft 124kts
21-Nov-20 13:11 34.312486 -118.711305 107 5539ft 127kts
21-Nov-20 13:12 34.302647 -118.669058 111 5564ft 130kts
21-Nov-20 13:13 34.288540 -118.630695 111 5114ft 121kts
21-Nov-20 13:14 34.277807 -118.591812 106 4548ft 117kts
21-Nov-20 13:15 34.265428 -118.554208 109 3900ft 117kts
21-Nov-20 13:16 34.250970 -118.518272 118 3189ft 114kts
21-Nov-20 13:17 34.235426 -118.485373 127 2472ft 115kts
21-Nov-20 13:18 34.210741 -118.466617 135 2186ft 95kts
21-Nov-20 13:19 34.201204 -118.436319 101 1974ft 102kts
21-Nov-20 13:20 34.197853 -118.405396 86 1432ft 85kts
21-Nov-20 13:21 34.197887 -118.379703 87 1006ft 76kts
21-Nov-20 13:22 34.197403 -118.360307 171 714ft 17kts
21-Nov-20 13:23 34.196964 -118.360244 183 713ft 1kts
21-Nov-20 13:24 34.196338 -118.358836 20 709ft 0kts
21-Nov-20 13:25 34.196338 -118.358836 20 709ft 0kts
21-Nov-20 13:26 34.196338 -118.358836 20 709ft 0kts
21-Nov-20 13:27 40.517217 -90.657495 89 693ft 0kts

Navigation Log

Ident Type
Flight plan parsing failed, navigation log unavailable